createdAt,value
2022-10-01T00:01:34.653Z,13.90
2022-10-01T00:04:43.219Z,13.93
2022-10-01T00:07:58.468Z,13.86
2022-10-01T00:11:01.159Z,13.83
2022-10-01T00:14:16.383Z,13.69
2022-10-01T00:17:24.903Z,13.89
2022-10-01T00:20:33.382Z,13.90
2022-10-01T00:24:00.522Z,14.04
2022-10-01T00:27:08.983Z,13.98
2022-10-01T00:30:17.379Z,13.90
2022-10-01T00:33:25.944Z,13.94
2022-10-01T00:36:34.380Z,13.96
2022-10-01T00:39:43.123Z,13.95
2022-10-01T00:42:57.758Z,14.05
2022-10-01T00:46:24.688Z,14.01
2022-10-01T00:49:43.399Z,14.05
2022-10-01T00:52:56.670Z,14.07
2022-10-01T00:56:06.378Z,13.95
2022-10-01T00:59:21.371Z,13.93
2022-10-01T01:02:23.017Z,14.07
2022-10-01T01:05:37.379Z,14.07
2022-10-01T01:09:12.455Z,13.95
2022-10-01T01:12:36.779Z,14.08
2022-10-01T01:16:03.454Z,14.09
2022-10-01T01:19:38.408Z,14.07
2022-10-01T01:23:06.579Z,14.01
2022-10-01T01:26:58.431Z,13.95
2022-10-01T01:30:26.400Z,13.92
2022-10-01T01:33:31.587Z,13.93
2022-10-01T01:36:52.444Z,13.87
2022-10-01T01:39:56.902Z,14.03
2022-10-01T01:43:36.391Z,13.88
2022-10-01T01:46:46.623Z,14.01
2022-10-01T01:49:56.404Z,13.96
2022-10-01T01:53:05.033Z,13.96
2022-10-01T01:56:19.400Z,13.95
2022-10-01T01:59:41.600Z,13.93
2022-10-01T02:03:00.455Z,13.72
2022-10-01T02:06:38.599Z,13.68
2022-10-01T02:10:26.407Z,13.75
2022-10-01T02:14:00.462Z,13.70
2022-10-01T02:17:16.561Z,13.60
2022-10-01T02:20:49.428Z,13.47
2022-10-01T02:24:43.455Z,13.38
2022-10-01T02:28:13.457Z,13.51
2022-10-01T02:31:24.531Z,13.44
2022-10-01T02:34:40.390Z,13.44
2022-10-01T02:37:44.680Z,13.48
2022-10-01T02:41:02.420Z,13.35
2022-10-01T02:44:23.486Z,13.44
2022-10-01T02:47:29.244Z,13.44
2022-10-01T02:50:54.421Z,13.51
2022-10-01T02:54:13.459Z,13.38
2022-10-01T02:57:23.450Z,13.52
2022-10-01T03:00:38.429Z,13.46
2022-10-01T03:03:46.967Z,13.42
2022-10-01T03:06:55.478Z,13.59
2022-10-01T03:10:05.035Z,13.63
2022-10-01T03:13:13.467Z,13.57
2022-10-01T03:16:22.028Z,13.64
2022-10-01T03:19:36.431Z,13.65
2022-10-01T03:22:44.668Z,13.60
2022-10-01T03:25:53.195Z,13.60
2022-10-01T03:29:07.416Z,13.58
2022-10-01T03:32:15.471Z,13.44
2022-10-01T03:35:31.653Z,13.55
2022-10-01T03:38:34.890Z,13.57
2022-10-01T03:42:10.464Z,13.60
2022-10-01T03:45:19.204Z,13.64
2022-10-01T03:48:27.494Z,13.70
2022-10-01T03:51:43.445Z,13.64
2022-10-01T03:54:52.088Z,13.65
2022-10-01T03:58:00.435Z,13.67
2022-10-01T04:01:08.871Z,13.70
2022-10-01T04:04:23.451Z,13.66
2022-10-01T04:07:24.996Z,13.55
2022-10-01T04:10:39.539Z,13.66
2022-10-01T04:13:41.491Z,13.59
2022-10-01T04:16:56.581Z,13.62
2022-10-01T04:20:24.949Z,13.69
2022-10-01T04:23:39.460Z,13.63
2022-10-01T04:26:54.508Z,13.60
2022-10-01T04:30:05.551Z,13.55
2022-10-01T04:33:16.526Z,13.51
2022-10-01T04:36:32.471Z,13.72
2022-10-01T04:39:40.948Z,13.79
2022-10-01T04:42:49.464Z,13.78
2022-10-01T04:46:04.445Z,13.75
2022-10-01T04:49:12.455Z,13.79
2022-10-01T04:52:27.512Z,13.87
2022-10-01T04:55:36.093Z,13.88
2022-10-01T04:58:44.435Z,13.86
2022-10-01T05:01:53.025Z,13.87
2022-10-01T05:05:08.456Z,13.88
2022-10-01T05:08:10.117Z,13.91
2022-10-01T05:11:24.517Z,13.82
2022-10-01T05:14:26.216Z,13.90
2022-10-01T05:17:40.470Z,13.93
2022-10-01T05:20:49.875Z,13.94
2022-10-01T05:24:04.519Z,14.01
2022-10-01T05:27:13.059Z,14.02
2022-10-01T05:30:28.456Z,13.95
2022-10-01T05:33:31.130Z,14.00
2022-10-01T05:36:45.459Z,13.99
2022-10-01T05:39:47.236Z,13.93
2022-10-01T05:43:03.466Z,13.96
2022-10-01T05:46:12.020Z,13.97
2022-10-01T05:49:20.474Z,13.79
2022-10-01T05:52:28.936Z,13.94
2022-10-01T05:55:43.520Z,13.87
2022-10-01T05:58:45.328Z,13.96
2022-10-01T06:01:59.602Z,13.95
2022-10-01T06:05:01.260Z,13.97
2022-10-01T06:08:15.489Z,13.99
2022-10-01T06:11:24.183Z,14.03
2022-10-01T06:14:32.487Z,14.00
2022-10-01T06:17:47.504Z,13.96
2022-10-01T06:21:04.486Z,14.02
2022-10-01T06:24:12.716Z,14.12
2022-10-01T06:27:27.543Z,14.29
2022-10-01T06:30:45.480Z,14.30
2022-10-01T06:33:47.034Z,14.34
2022-10-01T06:37:01.494Z,14.32
2022-10-01T06:40:03.759Z,14.26
2022-10-01T06:43:18.474Z,14.41
2022-10-01T06:46:27.036Z,14.46
2022-10-01T06:49:35.475Z,14.38
2022-10-01T06:52:44.115Z,14.53
2022-10-01T06:55:58.488Z,14.56
2022-10-01T06:59:00.247Z,14.64
2022-10-01T07:02:30.549Z,14.68
2022-10-01T07:05:52.146Z,14.76
2022-10-01T07:09:06.508Z,14.84
2022-10-01T07:12:14.983Z,14.82
2022-10-01T07:15:25.539Z,14.81
2022-10-01T07:18:34.374Z,14.83
2022-10-01T07:21:48.487Z,14.87
2022-10-01T07:24:56.764Z,14.89
2022-10-01T07:28:13.559Z,14.85
2022-10-01T07:31:16.252Z,14.77
2022-10-01T07:34:30.553Z,14.75
2022-10-01T07:37:45.517Z,14.88
2022-10-01T07:40:52.472Z,15.02
2022-10-01T07:44:07.559Z,15.16
2022-10-01T07:47:16.028Z,15.27
2022-10-01T07:50:24.590Z,15.25
2022-10-01T07:53:33.108Z,15.24
2022-10-01T07:56:41.511Z,15.29
2022-10-01T07:59:56.508Z,15.20
2022-10-01T08:03:12.637Z,15.28
2022-10-01T08:06:14.264Z,15.34
2022-10-01T08:09:28.580Z,15.37
2022-10-01T08:12:43.518Z,15.40
2022-10-01T08:15:53.522Z,15.52
2022-10-01T08:19:02.518Z,15.64
2022-10-01T08:22:17.578Z,15.56
2022-10-01T08:25:25.869Z,15.80
2022-10-01T08:28:41.511Z,15.74
2022-10-01T08:31:49.573Z,15.65
2022-10-01T08:34:58.138Z,15.78
2022-10-01T08:38:12.664Z,15.81
2022-10-01T08:41:44.320Z,15.87
2022-10-01T08:44:59.575Z,15.73
2022-10-01T08:48:26.582Z,15.81
2022-10-01T08:51:45.692Z,15.81
2022-10-01T08:55:06.550Z,15.82
2022-10-01T08:58:32.587Z,15.91
2022-10-01T09:01:34.448Z,15.86
2022-10-01T09:04:49.554Z,15.91
2022-10-01T09:08:17.606Z,16.03
2022-10-01T09:11:55.900Z,16.30
2022-10-01T09:15:39.560Z,16.39
2022-10-01T09:18:58.618Z,16.56
2022-10-01T09:22:33.555Z,16.63
2022-10-01T09:25:56.552Z,16.51
2022-10-01T09:29:07.564Z,16.63
2022-10-01T09:32:21.492Z,16.95
2022-10-01T09:35:45.799Z,16.91
2022-10-01T09:39:11.767Z,16.65
2022-10-01T09:42:26.019Z,16.73
2022-10-01T09:45:34.592Z,16.99
2022-10-01T09:49:09.559Z,17.38
2022-10-01T09:52:36.279Z,17.45
2022-10-01T09:55:48.619Z,17.48
2022-10-01T09:59:17.522Z,17.52
2022-10-01T10:02:33.771Z,17.86
2022-10-01T10:05:46.527Z,18.07
2022-10-01T10:08:54.552Z,18.21
2022-10-01T10:12:09.554Z,18.46
2022-10-01T10:15:28.547Z,18.42
2022-10-01T10:18:39.607Z,18.34
2022-10-01T10:21:58.578Z,18.35
2022-10-01T10:25:13.709Z,18.51
2022-10-01T10:28:30.697Z,18.52
2022-10-01T10:31:50.632Z,18.60
2022-10-01T10:35:03.549Z,18.79
2022-10-01T10:38:25.564Z,18.93
2022-10-01T10:41:29.746Z,18.40
2022-10-01T10:44:45.760Z,18.55
2022-10-01T10:48:00.561Z,17.94
2022-10-01T10:51:07.795Z,18.29
2022-10-01T10:54:26.643Z,18.56
2022-10-01T10:57:32.662Z,18.88
2022-10-01T11:00:54.571Z,19.55
2022-10-01T11:04:03.056Z,19.28
2022-10-01T11:07:11.660Z,19.46
2022-10-01T11:10:28.706Z,19.37
2022-10-01T11:13:57.562Z,19.50
2022-10-01T11:17:45.608Z,19.26
2022-10-01T11:21:12.968Z,19.28
2022-10-01T11:24:39.585Z,19.69
2022-10-01T11:28:17.990Z,19.66
2022-10-01T11:31:44.648Z,19.54
2022-10-01T11:35:12.624Z,19.20
2022-10-01T11:38:39.331Z,19.06
2022-10-01T11:41:59.678Z,19.05
2022-10-01T11:45:13.993Z,19.54
2022-10-01T11:48:37.596Z,19.07
2022-10-01T11:51:49.591Z,19.53
2022-10-01T11:55:14.684Z,19.77
2022-10-01T11:58:34.649Z,19.99
2022-10-01T12:01:59.675Z,20.15
2022-10-01T12:05:16.298Z,20.59
2022-10-01T12:08:29.746Z,20.47
2022-10-01T12:12:02.607Z,20.23
2022-10-01T12:15:19.760Z,20.05
2022-10-01T12:18:36.647Z,20.07
2022-10-01T12:22:24.372Z,19.97
2022-10-01T12:26:07.636Z,19.76
2022-10-01T12:29:28.671Z,19.72
2022-10-01T12:33:03.695Z,19.86
2022-10-01T12:36:25.288Z,19.82
2022-10-01T12:39:54.952Z,19.56
2022-10-01T12:44:08.607Z,19.65
2022-10-01T12:47:32.283Z,19.47
2022-10-01T12:51:07.176Z,19.58
2022-10-01T12:54:39.880Z,19.59
2022-10-01T12:58:20.136Z,19.73
2022-10-01T13:01:49.669Z,19.88
2022-10-01T13:05:24.639Z,20.04
2022-10-01T13:08:50.931Z,20.03
2022-10-01T13:12:20.695Z,20.01
2022-10-01T13:15:45.672Z,19.85
2022-10-01T13:19:20.849Z,19.83
2022-10-01T13:22:51.680Z,20.12
2022-10-01T13:26:20.651Z,19.98
2022-10-01T13:29:39.716Z,19.52
2022-10-01T13:33:04.620Z,20.14
2022-10-01T13:36:35.150Z,20.02
2022-10-01T13:39:43.624Z,20.54
2022-10-01T13:43:03.869Z,20.70
2022-10-01T13:47:11.004Z,20.78
2022-10-01T13:50:47.640Z,20.46
2022-10-01T13:54:02.239Z,20.01
2022-10-01T13:57:33.660Z,19.87
2022-10-01T14:00:35.659Z,19.62
2022-10-01T14:04:01.894Z,18.61
2022-10-01T14:07:29.094Z,18.11
2022-10-01T14:11:11.654Z,18.13
2022-10-01T14:14:37.755Z,18.30
2022-10-01T14:17:41.021Z,18.58
2022-10-01T14:21:14.684Z,18.81
2022-10-01T14:25:29.161Z,18.78
2022-10-01T14:29:22.028Z,18.91
2022-10-01T14:33:09.474Z,18.71
2022-10-01T14:36:39.966Z,18.64
2022-10-01T14:39:48.667Z,18.61
2022-10-01T14:43:02.506Z,18.49
2022-10-01T14:46:20.737Z,17.98
2022-10-01T14:49:26.673Z,17.96
2022-10-01T14:52:42.768Z,18.43
2022-10-01T14:56:01.664Z,17.87
2022-10-01T14:59:36.228Z,18.40
2022-10-01T15:02:58.813Z,18.34
2022-10-01T15:06:20.782Z,18.25
2022-10-01T15:09:22.403Z,17.65
2022-10-01T15:12:36.700Z,17.80
2022-10-01T15:15:45.404Z,17.91
2022-10-01T15:18:59.735Z,17.78
2022-10-01T15:22:22.011Z,17.79
2022-10-01T15:25:53.277Z,17.72
2022-10-01T15:29:27.727Z,17.64
2022-10-01T15:33:02.791Z,17.56
2022-10-01T15:36:24.951Z,17.51
2022-10-01T15:40:01.726Z,17.35
2022-10-01T15:43:29.783Z,16.75
2022-10-01T15:46:38.548Z,17.29
2022-10-01T15:50:08.954Z,17.25
2022-10-01T15:53:22.214Z,17.19
2022-10-01T15:56:56.684Z,16.95
2022-10-01T15:59:59.308Z,16.89
2022-10-01T16:03:26.025Z,16.69
2022-10-01T16:07:26.814Z,16.65
2022-10-01T16:11:14.149Z,16.52
2022-10-01T16:14:36.719Z,16.48
2022-10-01T16:18:01.764Z,16.45
2022-10-01T16:21:11.265Z,16.33
2022-10-01T16:24:32.737Z,16.26
2022-10-01T16:27:47.673Z,16.21
2022-10-01T16:31:01.715Z,16.17
2022-10-01T16:34:23.255Z,16.16
2022-10-01T16:42:27.738Z,16.16
2022-10-01T16:46:15.120Z,15.18
2022-10-01T16:49:29.024Z,16.07
2022-10-01T16:52:48.805Z,16.03
2022-10-01T16:55:57.411Z,16.01
2022-10-01T16:59:15.150Z,15.99
2022-10-01T17:02:41.326Z,15.99
2022-10-01T17:06:31.950Z,15.97
2022-10-01T17:09:47.946Z,15.96
2022-10-01T17:12:59.379Z,15.92
2022-10-01T17:16:24.632Z,15.89
2022-10-01T17:19:37.868Z,15.85
2022-10-01T17:23:04.891Z,15.86
2022-10-01T17:26:21.251Z,14.91
2022-10-01T17:29:37.958Z,15.69
2022-10-01T17:33:01.468Z,15.71
2022-10-01T17:36:16.803Z,15.69
2022-10-01T17:39:31.771Z,15.70
2022-10-01T17:42:45.455Z,15.70
2022-10-01T17:46:05.866Z,15.63
2022-10-01T17:49:14.537Z,15.63
2022-10-01T17:52:25.813Z,14.98
2022-10-01T17:55:52.091Z,14.75
2022-10-01T17:59:10.367Z,15.38
2022-10-01T18:02:36.723Z,15.44
2022-10-01T18:05:47.721Z,15.42
2022-10-01T18:08:56.870Z,15.38
2022-10-01T18:12:04.723Z,15.30
2022-10-01T18:15:13.167Z,15.40
2022-10-01T18:21:56.735Z,15.35
2022-10-01T18:25:18.727Z,15.26
2022-10-01T18:28:22.724Z,15.25
2022-10-01T18:31:46.771Z,15.16
2022-10-01T18:35:05.740Z,15.14
2022-10-01T18:38:20.438Z,14.90
2022-10-01T18:41:42.731Z,15.03
2022-10-01T18:44:45.723Z,14.96
2022-10-01T18:48:24.734Z,14.92
2022-10-01T18:51:51.724Z,14.68
2022-10-01T18:55:21.278Z,14.76
2022-10-01T18:59:04.806Z,14.62
2022-10-01T19:02:50.485Z,14.65
2022-10-01T19:06:10.551Z,14.59
2022-10-01T19:09:47.740Z,14.72
2022-10-01T19:13:11.411Z,14.84
2022-10-01T19:16:45.883Z,14.87
2022-10-01T19:20:21.815Z,14.63
2022-10-01T19:24:13.745Z,14.72
2022-10-01T19:27:52.794Z,14.66
2022-10-01T19:31:21.801Z,14.58
2022-10-01T19:34:41.179Z,14.57
2022-10-01T19:37:55.759Z,14.69
2022-10-01T19:41:22.747Z,14.75
2022-10-01T19:44:31.212Z,14.85
2022-10-01T19:47:52.756Z,14.97
2022-10-01T19:51:09.126Z,14.98
2022-10-01T19:54:22.056Z,15.03
2022-10-01T19:57:38.757Z,15.03
2022-10-01T20:00:42.430Z,15.03
2022-10-01T20:04:07.771Z,14.94
2022-10-01T20:07:34.819Z,14.95
2022-10-01T20:10:43.049Z,15.03
2022-10-01T20:14:12.772Z,15.07
2022-10-01T20:17:30.525Z,15.05
2022-10-01T20:20:47.815Z,14.75
2022-10-01T20:24:39.835Z,14.91
2022-10-01T20:28:07.995Z,15.02
2022-10-01T20:31:31.863Z,15.02
2022-10-01T20:35:01.848Z,14.93
2022-10-01T20:38:11.484Z,14.95
2022-10-01T20:41:28.815Z,15.07
2022-10-01T20:44:44.808Z,15.14
2022-10-01T20:47:53.335Z,15.09
2022-10-01T20:51:23.789Z,15.17
2022-10-01T20:54:38.796Z,15.30
2022-10-01T20:57:54.797Z,15.29
2022-10-01T21:01:15.942Z,15.18
2022-10-01T21:04:23.036Z,15.17
2022-10-01T21:07:54.878Z,15.21
2022-10-01T21:11:16.831Z,15.04
2022-10-01T21:14:28.683Z,14.98
2022-10-01T21:17:54.889Z,14.84
2022-10-01T21:21:15.643Z,14.81
2022-10-01T21:24:58.799Z,14.86
2022-10-01T21:28:33.956Z,14.76
2022-10-01T21:32:18.781Z,14.81
2022-10-01T21:35:39.475Z,14.67
2022-10-01T21:39:01.840Z,14.63
2022-10-01T21:42:15.924Z,14.52
2022-10-01T21:45:43.841Z,14.45
2022-10-01T21:49:18.483Z,14.26
2022-10-01T21:52:46.790Z,14.22
2022-10-01T21:56:30.829Z,14.20
2022-10-01T22:00:03.211Z,13.98
2022-10-01T22:03:42.810Z,14.01
2022-10-01T22:07:03.816Z,13.92
2022-10-01T22:10:26.983Z,13.71
2022-10-01T22:13:39.823Z,13.43
2022-10-01T22:17:01.881Z,13.51
2022-10-01T22:20:10.439Z,13.45
2022-10-01T22:23:23.848Z,13.20
2022-10-01T22:26:44.832Z,13.20
2022-10-01T22:30:00.820Z,12.99
2022-10-01T22:33:23.786Z,12.81
2022-10-01T22:36:41.424Z,12.75
2022-10-01T22:39:57.804Z,12.72
2022-10-01T22:43:16.875Z,12.64
2022-10-01T22:46:51.566Z,12.80
2022-10-01T22:50:16.809Z,13.14
2022-10-01T22:53:55.843Z,13.24
2022-10-01T22:57:21.590Z,13.26
2022-10-01T23:00:29.811Z,13.30
2022-10-01T23:04:02.829Z,13.35
2022-10-01T23:07:20.487Z,13.28
2022-10-01T23:10:55.821Z,13.42
2022-10-01T23:14:29.231Z,13.50
2022-10-01T23:17:48.820Z,13.54
2022-10-01T23:21:26.815Z,13.72
2022-10-01T23:25:00.912Z,13.68
2022-10-01T23:28:25.923Z,13.70
2022-10-01T23:31:49.881Z,13.67
2022-10-01T23:35:11.384Z,13.59
2022-10-01T23:38:39.808Z,13.74
2022-10-01T23:41:54.915Z,13.73
2022-10-01T23:45:12.893Z,13.68
2022-10-01T23:48:36.841Z,13.77
2022-10-01T23:51:55.200Z,13.65
2022-10-01T23:55:10.852Z,13.70
2022-10-01T23:58:22.835Z,13.69
